Makiyivka, Ukraine
Current Conditions -  °F | °C
As of 9:30 PM on Tuesday 21 Oct 2014 (Local Time) from URRR Reporting Station
Rain Showers Rain Showers  
Wind Chill: 54°   Ceiling: 800
Heat Index: 54°   Visibility: 6mi
Dew Point: 52°   Wind: 18mph
Humidity: 94%   Direction: 240°WSW
Pressure: 29.77"   Gusts: 25mph
Location:  48.03°N, 37.97°E
Report Text: URRR 211830Z 24008G11MPS 9999 -SHRA BKN008 BKN033CB OVC10012/11 Q1008 22290045 NOSIG
Loading
Personal Weather Stations






























Interactive Weather Map
Tropical Storm Tracking
New forecast layout! Learn more

10-Day Weather Forecast

Advertisements
Track Severe Weather on mobile